CPX714 Details

Departure: José María Córdova International Airport (SKRG) at 1430 UTC
Arrival: Miami International Airport (KMIA) at 1800 UTC
Route: BUTAL UQ105 KILER UG430 UCA UA301 URSUS FLIPR5


Current Weather Information
SKRG 181500Z 09003KT 4000 -DZ BKN007 BKN080 16/16 A3031
KMIA 181453Z 36005KT 10SM FEW010 SCT130 BKN240 23/19 A3006 RMK AO2 SLP178 T02330194 53013